sensor_id;sensor_type;location;lat;lon;timestamp;temperature;humidity
30304;DHT22;17112;48.636;10.152;2023-11-19T00:01:55;9.60;76.80
30304;DHT22;17112;48.636;10.152;2023-11-19T00:04:22;9.60;76.80
30304;DHT22;17112;48.636;10.152;2023-11-19T00:06:48;9.50;76.50
30304;DHT22;17112;48.636;10.152;2023-11-19T00:09:14;9.50;76.60
30304;DHT22;17112;48.636;10.152;2023-11-19T00:11:42;9.50;76.50
30304;DHT22;17112;48.636;10.152;2023-11-19T00:14:07;9.50;76.60
30304;DHT22;17112;48.636;10.152;2023-11-19T00:16:34;9.50;76.70
30304;DHT22;17112;48.636;10.152;2023-11-19T00:19:00;9.50;76.80
30304;DHT22;17112;48.636;10.152;2023-11-19T00:21:26;9.50;76.80
30304;DHT22;17112;48.636;10.152;2023-11-19T00:23:54;9.50;76.90
30304;DHT22;17112;48.636;10.152;2023-11-19T00:26:19;9.50;77.10
30304;DHT22;17112;48.636;10.152;2023-11-19T00:28:45;9.50;77.10
30304;DHT22;17112;48.636;10.152;2023-11-19T00:31:13;9.40;77.10
30304;DHT22;17112;48.636;10.152;2023-11-19T00:33:39;9.40;77.20
30304;DHT22;17112;48.636;10.152;2023-11-19T00:36:05;9.40;77.20
30304;DHT22;17112;48.636;10.152;2023-11-19T00:38:31;9.40;77.30
30304;DHT22;17112;48.636;10.152;2023-11-19T00:40:57;9.40;77.40
30304;DHT22;17112;48.636;10.152;2023-11-19T00:43:22;9.40;77.50
30304;DHT22;17112;48.636;10.152;2023-11-19T00:45:48;9.50;77.50
30304;DHT22;17112;48.636;10.152;2023-11-19T00:48:16;9.50;77.50
30304;DHT22;17112;48.636;10.152;2023-11-19T00:50:42;9.50;77.50
30304;DHT22;17112;48.636;10.152;2023-11-19T00:53:09;9.50;77.50
30304;DHT22;17112;48.636;10.152;2023-11-19T00:55:35;9.50;77.50
30304;DHT22;17112;48.636;10.152;2023-11-19T00:58:01;9.50;77.50
30304;DHT22;17112;48.636;10.152;2023-11-19T01:00:26;9.50;77.50
30304;DHT22;17112;48.636;10.152;2023-11-19T01:02:53;9.50;77.60
30304;DHT22;17112;48.636;10.152;2023-11-19T01:05:19;9.50;77.60
30304;DHT22;17112;48.636;10.152;2023-11-19T01:07:47;9.50;77.70
30304;DHT22;17112;48.636;10.152;2023-11-19T01:10:13;9.50;77.70
30304;DHT22;17112;48.636;10.152;2023-11-19T01:12:41;9.50;77.90
30304;DHT22;17112;48.636;10.152;2023-11-19T01:15:08;9.50;77.90
30304;DHT22;17112;48.636;10.152;2023-11-19T01:17:33;9.50;77.80
30304;DHT22;17112;48.636;10.152;2023-11-19T01:19:59;9.50;78.00
30304;DHT22;17112;48.636;10.152;2023-11-19T01:22:25;9.50;78.00
30304;DHT22;17112;48.636;10.152;2023-11-19T01:24:51;9.50;78.10
30304;DHT22;17112;48.636;10.152;2023-11-19T01:27:17;9.50;78.10
30304;DHT22;17112;48.636;10.152;2023-11-19T01:29:43;9.50;78.30
30304;DHT22;17112;48.636;10.152;2023-11-19T01:32:08;9.50;78.10
30304;DHT22;17112;48.636;10.152;2023-11-19T01:34:34;9.50;78.30
30304;DHT22;17112;48.636;10.152;2023-11-19T01:37:01;9.50;78.30
30304;DHT22;17112;48.636;10.152;2023-11-19T01:39:27;9.50;78.50
30304;DHT22;17112;48.636;10.152;2023-11-19T01:41:52;9.50;78.40
30304;DHT22;17112;48.636;10.152;2023-11-19T01:44:20;9.50;78.60
30304;DHT22;17112;48.636;10.152;2023-11-19T01:46:46;9.50;78.60
30304;DHT22;17112;48.636;10.152;2023-11-19T01:49:15;9.50;78.50
30304;DHT22;17112;48.636;10.152;2023-11-19T01:51:41;9.50;78.50
30304;DHT22;17112;48.636;10.152;2023-11-19T01:54:08;9.50;78.30
30304;DHT22;17112;48.636;10.152;2023-11-19T01:56:34;9.50;78.40
30304;DHT22;17112;48.636;10.152;2023-11-19T01:59:01;9.50;78.70
30304;DHT22;17112;48.636;10.152;2023-11-19T02:01:27;9.60;78.50
30304;DHT22;17112;48.636;10.152;2023-11-19T02:03:55;9.60;78.50
30304;DHT22;17112;48.636;10.152;2023-11-19T02:06:21;9.50;78.70
30304;DHT22;17112;48.636;10.152;2023-11-19T02:08:47;9.70;78.70
30304;DHT22;17112;48.636;10.152;2023-11-19T02:11:12;9.60;78.70
30304;DHT22;17112;48.636;10.152;2023-11-19T02:13:39;9.60;78.70
30304;DHT22;17112;48.636;10.152;2023-11-19T02:16:07;9.60;78.70
30304;DHT22;17112;48.636;10.152;2023-11-19T02:18:34;9.60;78.80
30304;DHT22;17112;48.636;10.152;2023-11-19T02:21:00;9.70;78.80
30304;DHT22;17112;48.636;10.152;2023-11-19T02:23:27;9.70;78.90
30304;DHT22;17112;48.636;10.152;2023-11-19T02:26:00;9.70;78.90
30304;DHT22;17112;48.636;10.152;2023-11-19T02:28:27;9.70;79.00
30304;DHT22;17112;48.636;10.152;2023-11-19T02:30:53;9.70;78.90
30304;DHT22;17112;48.636;10.152;2023-11-19T02:33:19;9.70;78.90
30304;DHT22;17112;48.636;10.152;2023-11-19T02:35:44;9.80;79.00
30304;DHT22;17112;48.636;10.152;2023-11-19T02:38:10;9.80;79.00
30304;DHT22;17112;48.636;10.152;2023-11-19T02:40:36;9.80;79.70
30304;DHT22;17112;48.636;10.152;2023-11-19T02:43:02;9.90;79.00
30304;DHT22;17112;48.636;10.152;2023-11-19T02:45:30;9.90;78.90
30304;DHT22;17112;48.636;10.152;2023-11-19T02:47:56;9.90;78.90
30304;DHT22;17112;48.636;10.152;2023-11-19T02:50:22;9.90;78.80
30304;DHT22;17112;48.636;10.152;2023-11-19T02:52:52;9.90;78.70
30304;DHT22;17112;48.636;10.152;2023-11-19T02:55:18;9.90;78.80
30304;DHT22;17112;48.636;10.152;2023-11-19T02:57:45;10.00;78.80
30304;DHT22;17112;48.636;10.152;2023-11-19T03:00:22;10.00;78.80
30304;DHT22;17112;48.636;10.152;2023-11-19T03:02:57;10.00;79.00
30304;DHT22;17112;48.636;10.152;2023-11-19T03:05:35;10.00;78.60
30304;DHT22;17112;48.636;10.152;2023-11-19T03:08:01;10.00;78.80
30304;DHT22;17112;48.636;10.152;2023-11-19T03:10:26;10.00;78.80
30304;DHT22;17112;48.636;10.152;2023-11-19T03:12:52;10.00;78.80
30304;DHT22;17112;48.636;10.152;2023-11-19T03:15:18;10.00;78.60
30304;DHT22;17112;48.636;10.152;2023-11-19T03:17:44;10.00;79.50
30304;DHT22;17112;48.636;10.152;2023-11-19T03:20:11;10.10;78.80
30304;DHT22;17112;48.636;10.152;2023-11-19T03:22:41;10.10;78.90
30304;DHT22;17112;48.636;10.152;2023-11-19T03:25:07;10.10;79.00
30304;DHT22;17112;48.636;10.152;2023-11-19T03:27:38;10.10;79.00
30304;DHT22;17112;48.636;10.152;2023-11-19T03:30:09;10.10;79.00
30304;DHT22;17112;48.636;10.152;2023-11-19T03:32:36;10.10;79.00
30304;DHT22;17112;48.636;10.152;2023-11-19T03:35:02;10.20;79.10
30304;DHT22;17112;48.636;10.152;2023-11-19T03:37:30;10.20;79.10
30304;DHT22;17112;48.636;10.152;2023-11-19T03:39:57;10.20;78.90
30304;DHT22;17112;48.636;10.152;2023-11-19T03:42:28;10.20;79.00
30304;DHT22;17112;48.636;10.152;2023-11-19T03:44:55;10.20;79.20
30304;DHT22;17112;48.636;10.152;2023-11-19T03:47:22;10.30;79.10
30304;DHT22;17112;48.636;10.152;2023-11-19T03:49:49;10.30;79.20
30304;DHT22;17112;48.636;10.152;2023-11-19T03:52:18;10.30;79.20
30304;DHT22;17112;48.636;10.152;2023-11-19T03:54:44;10.30;79.20
30304;DHT22;17112;48.636;10.152;2023-11-19T03:57:14;10.30;79.10
30304;DHT22;17112;48.636;10.152;2023-11-19T03:59:41;10.40;79.20
30304;DHT22;17112;48.636;10.152;2023-11-19T04:02:07;10.40;79.10
30304;DHT22;17112;48.636;10.152;2023-11-19T04:04:33;10.40;79.00
30304;DHT22;17112;48.636;10.152;2023-11-19T04:06:59;10.40;79.10
30304;DHT22;17112;48.636;10.152;2023-11-19T04:09:26;10.40;79.00
30304;DHT22;17112;48.636;10.152;2023-11-19T04:11:52;10.30;79.00
30304;DHT22;17112;48.636;10.152;2023-11-19T04:14:17;10.50;79.10
30304;DHT22;17112;48.636;10.152;2023-11-19T04:16:44;10.50;79.10
30304;DHT22;17112;48.636;10.152;2023-11-19T04:19:11;10.50;79.10
30304;DHT22;17112;48.636;10.152;2023-11-19T04:21:36;10.50;79.10
30304;DHT22;17112;48.636;10.152;2023-11-19T04:24:02;10.50;79.10
30304;DHT22;17112;48.636;10.152;2023-11-19T04:26:28;10.60;79.10
30304;DHT22;17112;48.636;10.152;2023-11-19T04:28:53;10.60;79.10
30304;DHT22;17112;48.636;10.152;2023-11-19T04:31:20;10.60;79.10
30304;DHT22;17112;48.636;10.152;2023-11-19T04:33:46;10.60;79.10
30304;DHT22;17112;48.636;10.152;2023-11-19T04:36:12;10.60;79.00
30304;DHT22;17112;48.636;10.152;2023-11-19T04:38:39;10.60;79.70
30304;DHT22;17112;48.636;10.152;2023-11-19T04:41:06;10.60;79.00
30304;DHT22;17112;48.636;10.152;2023-11-19T04:43:34;10.60;79.10
30304;DHT22;17112;48.636;10.152;2023-11-19T04:46:03;10.60;79.20
30304;DHT22;17112;48.636;10.152;2023-11-19T04:48:28;10.60;79.20
30304;DHT22;17112;48.636;10.152;2023-11-19T04:50:54;10.60;79.20
30304;DHT22;17112;48.636;10.152;2023-11-19T04:53:20;10.60;79.20
30304;DHT22;17112;48.636;10.152;2023-11-19T04:55:46;10.70;79.30
30304;DHT22;17112;48.636;10.152;2023-11-19T04:58:11;10.70;79.30
30304;DHT22;17112;48.636;10.152;2023-11-19T05:00:37;10.70;79.40
30304;DHT22;17112;48.636;10.152;2023-11-19T05:03:03;10.70;79.40
30304;DHT22;17112;48.636;10.152;2023-11-19T05:05:28;10.70;79.50
30304;DHT22;17112;48.636;10.152;2023-11-19T05:07:54;10.80;79.40
30304;DHT22;17112;48.636;10.152;2023-11-19T05:10:20;10.80;79.40
30304;DHT22;17112;48.636;10.152;2023-11-19T05:12:46;10.80;79.40
30304;DHT22;17112;48.636;10.152;2023-11-19T05:15:12;10.80;79.40
30304;DHT22;17112;48.636;10.152;2023-11-19T05:17:38;10.80;79.40
30304;DHT22;17112;48.636;10.152;2023-11-19T05:20:05;10.80;79.40
30304;DHT22;17112;48.636;10.152;2023-11-19T05:22:39;10.80;79.40
30304;DHT22;17112;48.636;10.152;2023-11-19T05:25:05;10.90;79.40
30304;DHT22;17112;48.636;10.152;2023-11-19T05:27:31;10.90;79.40
30304;DHT22;17112;48.636;10.152;2023-11-19T05:29:57;10.90;79.50
30304;DHT22;17112;48.636;10.152;2023-11-19T05:32:23;10.90;79.50
30304;DHT22;17112;48.636;10.152;2023-11-19T05:34:48;10.90;79.50
30304;DHT22;17112;48.636;10.152;2023-11-19T05:37:14;10.90;79.50
30304;DHT22;17112;48.636;10.152;2023-11-19T05:39:40;10.90;79.50
30304;DHT22;17112;48.636;10.152;2023-11-19T05:42:05;11.00;79.70
30304;DHT22;17112;48.636;10.152;2023-11-19T05:44:31;11.00;79.60
30304;DHT22;17112;48.636;10.152;2023-11-19T05:46:57;11.00;79.60
30304;DHT22;17112;48.636;10.152;2023-11-19T05:49:22;11.00;79.60
30304;DHT22;17112;48.636;10.152;2023-11-19T05:51:48;11.00;79.60
30304;DHT22;17112;48.636;10.152;2023-11-19T05:54:14;11.00;79.60
30304;DHT22;17112;48.636;10.152;2023-11-19T05:56:39;11.00;79.60
30304;DHT22;17112;48.636;10.152;2023-11-19T05:59:05;11.00;79.60
30304;DHT22;17112;48.636;10.152;2023-11-19T06:01:39;11.10;79.80
30304;DHT22;17112;48.636;10.152;2023-11-19T06:04:07;11.10;79.70
30304;DHT22;17112;48.636;10.152;2023-11-19T06:06:32;11.10;79.70
30304;DHT22;17112;48.636;10.152;2023-11-19T06:08:58;11.10;79.70
30304;DHT22;17112;48.636;10.152;2023-11-19T06:11:24;11.10;79.70
30304;DHT22;17112;48.636;10.152;2023-11-19T06:13:52;11.20;79.80
30304;DHT22;17112;48.636;10.152;2023-11-19T06:16:18;11.20;79.80
30304;DHT22;17112;48.636;10.152;2023-11-19T06:18:44;11.20;79.70
30304;DHT22;17112;48.636;10.152;2023-11-19T06:21:10;11.20;79.70
30304;DHT22;17112;48.636;10.152;2023-11-19T06:23:35;11.20;79.70
30304;DHT22;17112;48.636;10.152;2023-11-19T06:26:01;11.20;79.60
30304;DHT22;17112;48.636;10.152;2023-11-19T06:28:27;11.20;79.70
30304;DHT22;17112;48.636;10.152;2023-11-19T06:30:53;11.20;79.60
30304;DHT22;17112;48.636;10.152;2023-11-19T06:33:18;11.20;79.60
30304;DHT22;17112;48.636;10.152;2023-11-19T06:35:44;11.30;79.80
30304;DHT22;17112;48.636;10.152;2023-11-19T06:38:10;11.30;79.80
30304;DHT22;17112;48.636;10.152;2023-11-19T06:40:36;11.30;79.80
30304;DHT22;17112;48.636;10.152;2023-11-19T06:43:02;11.30;79.80
30304;DHT22;17112;48.636;10.152;2023-11-19T06:45:34;11.30;79.80
30304;DHT22;17112;48.636;10.152;2023-11-19T06:48:03;11.30;79.80
30304;DHT22;17112;48.636;10.152;2023-11-19T06:50:29;11.30;79.80
30304;DHT22;17112;48.636;10.152;2023-11-19T06:52:55;11.30;79.70
30304;DHT22;17112;48.636;10.152;2023-11-19T06:55:21;11.30;79.70
30304;DHT22;17112;48.636;10.152;2023-11-19T06:57:46;11.30;79.60
30304;DHT22;17112;48.636;10.152;2023-11-19T07:00:12;11.30;79.90
30304;DHT22;17112;48.636;10.152;2023-11-19T07:02:38;11.30;79.80
30304;DHT22;17112;48.636;10.152;2023-11-19T07:05:05;11.30;79.80
30304;DHT22;17112;48.636;10.152;2023-11-19T07:07:31;11.30;80.10
30304;DHT22;17112;48.636;10.152;2023-11-19T07:09:58;11.30;80.20
30304;DHT22;17112;48.636;10.152;2023-11-19T07:12:24;11.30;80.20
30304;DHT22;17112;48.636;10.152;2023-11-19T07:14:52;11.40;80.50
30304;DHT22;17112;48.636;10.152;2023-11-19T07:17:18;11.40;80.60
30304;DHT22;17112;48.636;10.152;2023-11-19T07:19:49;11.40;80.60
30304;DHT22;17112;48.636;10.152;2023-11-19T07:22:15;11.40;80.70
30304;DHT22;17112;48.636;10.152;2023-11-19T07:24:41;11.50;80.70
30304;DHT22;17112;48.636;10.152;2023-11-19T07:27:07;11.40;80.60
30304;DHT22;17112;48.636;10.152;2023-11-19T07:29:37;11.50;80.60
30304;DHT22;17112;48.636;10.152;2023-11-19T07:32:03;11.50;80.70
30304;DHT22;17112;48.636;10.152;2023-11-19T07:34:28;11.50;80.70
30304;DHT22;17112;48.636;10.152;2023-11-19T07:36:54;11.60;81.50
30304;DHT22;17112;48.636;10.152;2023-11-19T07:39:22;11.60;80.90
30304;DHT22;17112;48.636;10.152;2023-11-19T07:41:48;11.60;80.80
30304;DHT22;17112;48.636;10.152;2023-11-19T07:44:14;11.70;80.90
30304;DHT22;17112;48.636;10.152;2023-11-19T07:46:40;11.70;81.10
30304;DHT22;17112;48.636;10.152;2023-11-19T07:49:07;11.70;81.10
30304;DHT22;17112;48.636;10.152;2023-11-19T07:51:33;11.70;81.10
30304;DHT22;17112;48.636;10.152;2023-11-19T07:53:58;11.70;81.20
30304;DHT22;17112;48.636;10.152;2023-11-19T07:56:24;11.80;81.20
30304;DHT22;17112;48.636;10.152;2023-11-19T07:58:50;11.80;81.30
30304;DHT22;17112;48.636;10.152;2023-11-19T08:01:16;11.80;81.10
30304;DHT22;17112;48.636;10.152;2023-11-19T08:03:41;11.90;81.10
30304;DHT22;17112;48.636;10.152;2023-11-19T08:06:07;11.90;81.00
30304;DHT22;17112;48.636;10.152;2023-11-19T08:08:33;11.90;81.20
30304;DHT22;17112;48.636;10.152;2023-11-19T08:11:00;11.90;81.40
30304;DHT22;17112;48.636;10.152;2023-11-19T08:13:26;11.90;81.50
30304;DHT22;17112;48.636;10.152;2023-11-19T08:15:52;12.00;81.70
30304;DHT22;17112;48.636;10.152;2023-11-19T08:18:17;12.00;81.60
30304;DHT22;17112;48.636;10.152;2023-11-19T08:20:44;12.00;81.50
30304;DHT22;17112;48.636;10.152;2023-11-19T08:23:10;12.00;81.30
30304;DHT22;17112;48.636;10.152;2023-11-19T08:25:36;12.10;82.10
30304;DHT22;17112;48.636;10.152;2023-11-19T08:28:02;12.10;81.40
30304;DHT22;17112;48.636;10.152;2023-11-19T08:30:29;12.10;81.60
30304;DHT22;17112;48.636;10.152;2023-11-19T08:32:55;12.20;81.80
30304;DHT22;17112;48.636;10.152;2023-11-19T08:35:21;12.20;82.00
30304;DHT22;17112;48.636;10.152;2023-11-19T08:37:47;12.30;82.10
30304;DHT22;17112;48.636;10.152;2023-11-19T08:40:13;12.30;81.70
30304;DHT22;17112;48.636;10.152;2023-11-19T08:42:41;12.40;81.60
30304;DHT22;17112;48.636;10.152;2023-11-19T08:45:07;12.40;81.40
30304;DHT22;17112;48.636;10.152;2023-11-19T08:47:36;12.40;81.20
30304;DHT22;17112;48.636;10.152;2023-11-19T08:50:01;12.50;81.30
30304;DHT22;17112;48.636;10.152;2023-11-19T08:52:29;12.50;81.30
30304;DHT22;17112;48.636;10.152;2023-11-19T08:54:55;12.50;81.30
30304;DHT22;17112;48.636;10.152;2023-11-19T08:57:21;12.50;81.40
30304;DHT22;17112;48.636;10.152;2023-11-19T08:59:47;12.60;81.70
30304;DHT22;17112;48.636;10.152;2023-11-19T09:02:13;12.60;81.80
30304;DHT22;17112;48.636;10.152;2023-11-19T09:04:38;12.70;81.60
30304;DHT22;17112;48.636;10.152;2023-11-19T09:07:04;12.70;81.40
30304;DHT22;17112;48.636;10.152;2023-11-19T09:09:30;12.80;81.50
30304;DHT22;17112;48.636;10.152;2023-11-19T09:11:56;12.80;81.40
30304;DHT22;17112;48.636;10.152;2023-11-19T09:14:21;12.90;81.50
30304;DHT22;17112;48.636;10.152;2023-11-19T09:16:52;12.90;81.40
30304;DHT22;17112;48.636;10.152;2023-11-19T09:19:18;12.90;81.10
30304;DHT22;17112;48.636;10.152;2023-11-19T09:21:43;13.00;81.00
30304;DHT22;17112;48.636;10.152;2023-11-19T09:24:09;13.00;80.80
30304;DHT22;17112;48.636;10.152;2023-11-19T09:26:35;13.00;80.90
30304;DHT22;17112;48.636;10.152;2023-11-19T09:29:02;13.00;81.00
30304;DHT22;17112;48.636;10.152;2023-11-19T09:31:27;13.10;81.20
30304;DHT22;17112;48.636;10.152;2023-11-19T09:33:53;13.20;81.20
30304;DHT22;17112;48.636;10.152;2023-11-19T09:36:19;13.20;81.00
30304;DHT22;17112;48.636;10.152;2023-11-19T09:38:45;13.30;81.00
30304;DHT22;17112;48.636;10.152;2023-11-19T09:41:11;13.30;81.00
30304;DHT22;17112;48.636;10.152;2023-11-19T09:43:40;13.40;81.20
30304;DHT22;17112;48.636;10.152;2023-11-19T09:46:09;13.50;81.30
30304;DHT22;17112;48.636;10.152;2023-11-19T09:48:37;13.50;81.30
30304;DHT22;17112;48.636;10.152;2023-11-19T09:51:07;13.60;81.20
30304;DHT22;17112;48.636;10.152;2023-11-19T09:53:37;13.70;81.10
30304;DHT22;17112;48.636;10.152;2023-11-19T09:56:06;13.80;81.10
30304;DHT22;17112;48.636;10.152;2023-11-19T09:58:33;13.90;81.40
30304;DHT22;17112;48.636;10.152;2023-11-19T10:01:00;13.90;81.20
30304;DHT22;17112;48.636;10.152;2023-11-19T10:03:35;14.10;81.20
30304;DHT22;17112;48.636;10.152;2023-11-19T10:06:07;14.20;81.00
30304;DHT22;17112;48.636;10.152;2023-11-19T10:08:34;14.30;80.70
30304;DHT22;17112;48.636;10.152;2023-11-19T10:10:59;14.30;80.60
30304;DHT22;17112;48.636;10.152;2023-11-19T10:13:28;14.40;80.40
30304;DHT22;17112;48.636;10.152;2023-11-19T10:15:56;14.50;80.30
30304;DHT22;17112;48.636;10.152;2023-11-19T10:18:26;14.60;80.30
30304;DHT22;17112;48.636;10.152;2023-11-19T10:20:52;14.60;80.20
30304;DHT22;17112;48.636;10.152;2023-11-19T10:23:18;14.70;79.80
30304;DHT22;17112;48.636;10.152;2023-11-19T10:25:45;14.80;79.70
30304;DHT22;17112;48.636;10.152;2023-11-19T10:28:10;14.90;79.80
30304;DHT22;17112;48.636;10.152;2023-11-19T10:30:36;15.00;79.70
30304;DHT22;17112;48.636;10.152;2023-11-19T10:33:09;15.10;79.60
30304;DHT22;17112;48.636;10.152;2023-11-19T10:35:51;15.30;79.50
30304;DHT22;17112;48.636;10.152;2023-11-19T10:38:19;15.40;79.40
30304;DHT22;17112;48.636;10.152;2023-11-19T10:40:44;15.50;79.10
30304;DHT22;17112;48.636;10.152;2023-11-19T10:43:10;15.60;78.90
30304;DHT22;17112;48.636;10.152;2023-11-19T10:45:37;15.60;78.40
30304;DHT22;17112;48.636;10.152;2023-11-19T10:48:03;15.70;77.70
30304;DHT22;17112;48.636;10.152;2023-11-19T10:50:33;15.80;77.80
30304;DHT22;17112;48.636;10.152;2023-11-19T10:53:00;15.80;76.20
30304;DHT22;17112;48.636;10.152;2023-11-19T10:55:33;15.90;76.40
30304;DHT22;17112;48.636;10.152;2023-11-19T10:58:04;16.00;76.50
30304;DHT22;17112;48.636;10.152;2023-11-19T11:00:54;16.00;76.70
30304;DHT22;17112;48.636;10.152;2023-11-19T11:03:22;16.10;76.30
30304;DHT22;17112;48.636;10.152;2023-11-19T11:05:51;16.10;75.90
30304;DHT22;17112;48.636;10.152;2023-11-19T11:08:18;16.10;75.80
30304;DHT22;17112;48.636;10.152;2023-11-19T11:10:53;16.10;75.60
30304;DHT22;17112;48.636;10.152;2023-11-19T11:13:22;16.10;75.10
30304;DHT22;17112;48.636;10.152;2023-11-19T11:15:50;16.10;75.30
30304;DHT22;17112;48.636;10.152;2023-11-19T11:18:16;16.10;75.30
30304;DHT22;17112;48.636;10.152;2023-11-19T11:20:45;16.00;75.20
30304;DHT22;17112;48.636;10.152;2023-11-19T11:31:07;15.90;74.70
30304;DHT22;17112;48.636;10.152;2023-11-19T11:36:27;15.90;73.40
30304;DHT22;17112;48.636;10.152;2023-11-19T11:38:58;15.90;74.20
30304;DHT22;17112;48.636;10.152;2023-11-19T11:41:26;16.00;73.70
30304;DHT22;17112;48.636;10.152;2023-11-19T11:43:53;16.00;73.50
30304;DHT22;17112;48.636;10.152;2023-11-19T11:49:04;16.10;72.90
30304;DHT22;17112;48.636;10.152;2023-11-19T11:54:11;16.10;71.60
30304;DHT22;17112;48.636;10.152;2023-11-19T11:56:37;16.10;70.10
30304;DHT22;17112;48.636;10.152;2023-11-19T11:59:23;16.10;70.50
30304;DHT22;17112;48.636;10.152;2023-11-19T12:01:58;16.10;71.20
30304;DHT22;17112;48.636;10.152;2023-11-19T12:04:26;16.10;70.80
30304;DHT22;17112;48.636;10.152;2023-11-19T12:07:06;16.10;71.00
30304;DHT22;17112;48.636;10.152;2023-11-19T12:09:32;16.10;70.90
30304;DHT22;17112;48.636;10.152;2023-11-19T12:20:00;16.40;69.70
30304;DHT22;17112;48.636;10.152;2023-11-19T12:22:26;16.40;70.80
30304;DHT22;17112;48.636;10.152;2023-11-19T12:24:55;16.50;69.90
30304;DHT22;17112;48.636;10.152;2023-11-19T12:27:21;16.60;69.50
30304;DHT22;17112;48.636;10.152;2023-11-19T12:29:48;16.70;70.00
30304;DHT22;17112;48.636;10.152;2023-11-19T12:32:14;16.80;69.90
30304;DHT22;17112;48.636;10.152;2023-11-19T12:34:39;16.80;69.20
30304;DHT22;17112;48.636;10.152;2023-11-19T12:37:05;16.90;69.30
30304;DHT22;17112;48.636;10.152;2023-11-19T12:39:32;16.90;68.90
30304;DHT22;17112;48.636;10.152;2023-11-19T12:41:58;16.90;69.00
30304;DHT22;17112;48.636;10.152;2023-11-19T12:44:26;17.00;69.00
30304;DHT22;17112;48.636;10.152;2023-11-19T12:47:03;17.10;68.90
30304;DHT22;17112;48.636;10.152;2023-11-19T12:49:29;17.10;68.40
30304;DHT22;17112;48.636;10.152;2023-11-19T12:51:55;17.30;69.30
30304;DHT22;17112;48.636;10.152;2023-11-19T12:54:31;17.40;68.40
30304;DHT22;17112;48.636;10.152;2023-11-19T12:56:57;17.50;67.90
30304;DHT22;17112;48.636;10.152;2023-11-19T12:59:22;17.70;67.70
30304;DHT22;17112;48.636;10.152;2023-11-19T13:01:55;17.70;66.90
30304;DHT22;17112;48.636;10.152;2023-11-19T13:04:21;17.80;65.60
30304;DHT22;17112;48.636;10.152;2023-11-19T13:06:47;17.80;66.30
30304;DHT22;17112;48.636;10.152;2023-11-19T13:11:48;17.80;64.40
30304;DHT22;17112;48.636;10.152;2023-11-19T13:14:14;17.80;64.00
30304;DHT22;17112;48.636;10.152;2023-11-19T13:16:39;17.80;64.50
30304;DHT22;17112;48.636;10.152;2023-11-19T13:19:05;17.70;64.00
30304;DHT22;17112;48.636;10.152;2023-11-19T13:21:31;17.60;63.80
30304;DHT22;17112;48.636;10.152;2023-11-19T13:23:57;17.50;62.90
30304;DHT22;17112;48.636;10.152;2023-11-19T13:26:23;17.40;63.90
30304;DHT22;17112;48.636;10.152;2023-11-19T13:28:48;17.40;63.80
30304;DHT22;17112;48.636;10.152;2023-11-19T13:31:14;17.30;63.90
30304;DHT22;17112;48.636;10.152;2023-11-19T13:33:41;17.20;63.70
30304;DHT22;17112;48.636;10.152;2023-11-19T13:36:07;17.10;63.70
30304;DHT22;17112;48.636;10.152;2023-11-19T13:38:36;17.10;63.80
30304;DHT22;17112;48.636;10.152;2023-11-19T13:41:03;17.00;64.40
30304;DHT22;17112;48.636;10.152;2023-11-19T13:43:30;16.90;64.20
30304;DHT22;17112;48.636;10.152;2023-11-19T13:45:56;17.10;64.70
30304;DHT22;17112;48.636;10.152;2023-11-19T13:48:23;16.90;64.60
30304;DHT22;17112;48.636;10.152;2023-11-19T13:50:49;16.90;64.90
30304;DHT22;17112;48.636;10.152;2023-11-19T13:53:15;16.80;64.90
30304;DHT22;17112;48.636;10.152;2023-11-19T13:55:42;16.80;64.50
30304;DHT22;17112;48.636;10.152;2023-11-19T13:58:08;16.80;63.80
30304;DHT22;17112;48.636;10.152;2023-11-19T14:00:33;16.80;64.20
30304;DHT22;17112;48.636;10.152;2023-11-19T14:02:59;16.80;64.40
30304;DHT22;17112;48.636;10.152;2023-11-19T14:05:24;16.70;64.00
30304;DHT22;17112;48.636;10.152;2023-11-19T14:07:50;16.70;64.30
30304;DHT22;17112;48.636;10.152;2023-11-19T14:10:17;16.60;64.20
30304;DHT22;17112;48.636;10.152;2023-11-19T14:12:42;16.60;64.40
30304;DHT22;17112;48.636;10.152;2023-11-19T14:15:09;16.60;64.30
30304;DHT22;17112;48.636;10.152;2023-11-19T14:17:39;16.60;64.40
30304;DHT22;17112;48.636;10.152;2023-11-19T14:20:06;16.50;64.10
30304;DHT22;17112;48.636;10.152;2023-11-19T14:22:43;16.50;64.00
30304;DHT22;17112;48.636;10.152;2023-11-19T14:25:10;16.50;64.20
30304;DHT22;17112;48.636;10.152;2023-11-19T14:27:40;16.40;64.30
30304;DHT22;17112;48.636;10.152;2023-11-19T14:30:07;16.50;64.50
30304;DHT22;17112;48.636;10.152;2023-11-19T14:32:37;16.50;64.40
30304;DHT22;17112;48.636;10.152;2023-11-19T14:35:03;16.40;64.40
30304;DHT22;17112;48.636;10.152;2023-11-19T14:37:29;16.40;64.50
30304;DHT22;17112;48.636;10.152;2023-11-19T14:39:58;16.40;64.70
30304;DHT22;17112;48.636;10.152;2023-11-19T14:42:25;16.40;64.80
30304;DHT22;17112;48.636;10.152;2023-11-19T14:44:53;16.40;65.00
30304;DHT22;17112;48.636;10.152;2023-11-19T14:47:20;16.40;64.70
30304;DHT22;17112;48.636;10.152;2023-11-19T14:49:46;16.40;65.00
30304;DHT22;17112;48.636;10.152;2023-11-19T14:52:11;16.30;64.80
30304;DHT22;17112;48.636;10.152;2023-11-19T14:54:37;16.30;64.70
30304;DHT22;17112;48.636;10.152;2023-11-19T14:57:06;16.30;64.30
30304;DHT22;17112;48.636;10.152;2023-11-19T14:59:36;16.40;64.50
30304;DHT22;17112;48.636;10.152;2023-11-19T15:02:02;16.30;64.20
30304;DHT22;17112;48.636;10.152;2023-11-19T15:04:28;16.30;64.10
30304;DHT22;17112;48.636;10.152;2023-11-19T15:06:56;16.30;64.40
30304;DHT22;17112;48.636;10.152;2023-11-19T15:09:22;16.30;64.50
30304;DHT22;17112;48.636;10.152;2023-11-19T15:11:48;16.30;64.50
30304;DHT22;17112;48.636;10.152;2023-11-19T15:14:14;16.30;64.30
30304;DHT22;17112;48.636;10.152;2023-11-19T15:16:45;16.20;64.40
30304;DHT22;17112;48.636;10.152;2023-11-19T15:19:12;16.30;64.20
30304;DHT22;17112;48.636;10.152;2023-11-19T15:21:41;16.20;63.80
30304;DHT22;17112;48.636;10.152;2023-11-19T15:24:08;16.20;63.80
30304;DHT22;17112;48.636;10.152;2023-11-19T15:26:34;16.20;63.90
30304;DHT22;17112;48.636;10.152;2023-11-19T15:29:01;16.20;64.00
30304;DHT22;17112;48.636;10.152;2023-11-19T15:31:26;16.10;64.00
30304;DHT22;17112;48.636;10.152;2023-11-19T15:33:52;16.10;63.60
30304;DHT22;17112;48.636;10.152;2023-11-19T15:36:18;16.00;63.90
30304;DHT22;17112;48.636;10.152;2023-11-19T15:38:44;16.00;64.30
30304;DHT22;17112;48.636;10.152;2023-11-19T15:41:10;15.90;65.00
30304;DHT22;17112;48.636;10.152;2023-11-19T15:43:35;15.80;64.10
30304;DHT22;17112;48.636;10.152;2023-11-19T15:46:05;15.70;64.20